sensor_id;sensor_type;location;lat;lon;timestamp;pressure;altitude;pressure_sealevel;temperature;humidity
45275;BME280;31019;43.780;25.948;2023-07-24T00:00:05;101183.28;;;18.65;100.00
45275;BME280;31019;43.780;25.948;2023-07-24T00:02:33;101179.28;;;18.67;100.00
45275;BME280;31019;43.780;25.948;2023-07-24T00:05:00;101184.84;;;18.61;100.00
45275;BME280;31019;43.780;25.948;2023-07-24T00:07:27;101177.97;;;18.14;100.00
45275;BME280;31019;43.780;25.948;2023-07-24T00:09:54;101184.66;;;17.95;100.00
45275;BME280;31019;43.780;25.948;2023-07-24T00:12:21;101188.19;;;18.51;100.00
45275;BME280;31019;43.780;25.948;2023-07-24T00:14:49;101177.97;;;18.31;100.00
45275;BME280;31019;43.780;25.948;2023-07-24T00:17:15;101184.88;;;18.27;100.00
45275;BME280;31019;43.780;25.948;2023-07-24T00:19:44;101187.78;;;18.59;100.00
45275;BME280;31019;43.780;25.948;2023-07-24T00:22:10;101184.09;;;18.65;100.00
45275;BME280;31019;43.780;25.948;2023-07-24T00:24:37;101193.38;;;18.19;100.00
45275;BME280;31019;43.780;25.948;2023-07-24T00:27:04;101181.28;;;18.55;100.00
45275;BME280;31019;43.780;25.948;2023-07-24T00:29:31;101175.91;;;18.38;100.00
45275;BME280;31019;43.780;25.948;2023-07-24T00:31:58;101181.00;;;18.01;100.00
45275;BME280;31019;43.780;25.948;2023-07-24T00:34:25;101183.34;;;18.14;100.00
45275;BME280;31019;43.780;25.948;2023-07-24T00:36:53;101184.47;;;18.35;100.00
45275;BME280;31019;43.780;25.948;2023-07-24T00:39:20;101186.50;;;17.77;100.00
45275;BME280;31019;43.780;25.948;2023-07-24T00:41:47;101181.25;;;18.16;100.00
45275;BME280;31019;43.780;25.948;2023-07-24T00:44:14;101181.22;;;17.99;100.00
45275;BME280;31019;43.780;25.948;2023-07-24T00:46:41;101183.84;;;17.66;100.00
45275;BME280;31019;43.780;25.948;2023-07-24T00:49:08;101184.47;;;17.84;100.00
45275;BME280;31019;43.780;25.948;2023-07-24T00:51:35;101181.56;;;17.86;100.00
45275;BME280;31019;43.780;25.948;2023-07-24T00:54:05;101178.81;;;17.69;100.00
45275;BME280;31019;43.780;25.948;2023-07-24T00:56:32;101186.66;;;18.21;100.00
45275;BME280;31019;43.780;25.948;2023-07-24T00:59:01;101187.66;;;18.15;100.00
45275;BME280;31019;43.780;25.948;2023-07-24T01:01:28;101175.69;;;17.89;100.00
45275;BME280;31019;43.780;25.948;2023-07-24T01:03:56;101171.78;;;17.80;100.00
45275;BME280;31019;43.780;25.948;2023-07-24T01:06:24;101172.34;;;17.82;100.00
45275;BME280;31019;43.780;25.948;2023-07-24T01:08:51;101170.88;;;17.91;100.00
45275;BME280;31019;43.780;25.948;2023-07-24T01:11:21;101164.09;;;17.72;100.00
45275;BME280;31019;43.780;25.948;2023-07-24T01:13:56;101166.06;;;17.76;100.00
45275;BME280;31019;43.780;25.948;2023-07-24T01:16:26;101170.56;;;18.04;100.00
45275;BME280;31019;43.780;25.948;2023-07-24T01:19:00;101174.31;;;18.20;100.00
45275;BME280;31019;43.780;25.948;2023-07-24T01:21:33;101162.50;;;18.04;100.00
45275;BME280;31019;43.780;25.948;2023-07-24T01:24:17;101170.47;;;17.99;100.00
45275;BME280;31019;43.780;25.948;2023-07-24T01:26:51;101168.38;;;17.73;100.00
45275;BME280;31019;43.780;25.948;2023-07-24T01:29:18;101166.34;;;17.92;100.00
45275;BME280;31019;43.780;25.948;2023-07-24T01:31:45;101170.81;;;17.29;100.00
45275;BME280;31019;43.780;25.948;2023-07-24T01:34:12;101178.97;;;16.93;100.00
45275;BME280;31019;43.780;25.948;2023-07-24T01:36:39;101174.63;;;17.90;100.00
45275;BME280;31019;43.780;25.948;2023-07-24T01:39:06;101180.91;;;17.96;100.00
45275;BME280;31019;43.780;25.948;2023-07-24T01:41:33;101181.97;;;17.95;100.00
45275;BME280;31019;43.780;25.948;2023-07-24T01:44:05;101174.94;;;17.94;100.00
45275;BME280;31019;43.780;25.948;2023-07-24T01:46:32;101182.03;;;17.54;100.00
45275;BME280;31019;43.780;25.948;2023-07-24T01:48:58;101178.16;;;17.62;100.00
45275;BME280;31019;43.780;25.948;2023-07-24T01:51:25;101178.19;;;17.79;100.00
45275;BME280;31019;43.780;25.948;2023-07-24T01:53:52;101178.13;;;17.91;100.00
45275;BME280;31019;43.780;25.948;2023-07-24T01:56:19;101181.00;;;18.01;100.00
45275;BME280;31019;43.780;25.948;2023-07-24T01:58:46;101189.00;;;17.67;100.00
45275;BME280;31019;43.780;25.948;2023-07-24T02:01:14;101177.72;;;17.82;100.00
45275;BME280;31019;43.780;25.948;2023-07-24T02:03:41;101173.75;;;18.01;100.00
45275;BME280;31019;43.780;25.948;2023-07-24T02:06:08;101180.44;;;17.70;100.00
45275;BME280;31019;43.780;25.948;2023-07-24T02:08:34;101174.88;;;17.89;100.00
45275;BME280;31019;43.780;25.948;2023-07-24T02:11:03;101181.97;;;18.12;100.00
45275;BME280;31019;43.780;25.948;2023-07-24T02:13:30;101182.13;;;18.05;100.00
45275;BME280;31019;43.780;25.948;2023-07-24T02:15:57;101181.00;;;18.01;100.00
45275;BME280;31019;43.780;25.948;2023-07-24T02:18:28;101178.28;;;17.84;100.00
45275;BME280;31019;43.780;25.948;2023-07-24T02:20:54;101178.38;;;17.60;100.00
45275;BME280;31019;43.780;25.948;2023-07-24T02:23:21;101178.84;;;17.40;100.00
45275;BME280;31019;43.780;25.948;2023-07-24T02:25:50;101189.16;;;17.49;100.00
45275;BME280;31019;43.780;25.948;2023-07-24T02:28:17;101187.09;;;17.22;100.00
45275;BME280;31019;43.780;25.948;2023-07-24T02:30:46;101197.25;;;17.08;100.00
45275;BME280;31019;43.780;25.948;2023-07-24T02:33:13;101202.28;;;17.05;100.00
45275;BME280;31019;43.780;25.948;2023-07-24T02:35:41;101197.59;;;17.52;100.00
45275;BME280;31019;43.780;25.948;2023-07-24T02:38:09;101204.31;;;17.55;100.00
45275;BME280;31019;43.780;25.948;2023-07-24T02:40:36;101212.56;;;17.36;100.00
45275;BME280;31019;43.780;25.948;2023-07-24T02:43:03;101211.84;;;17.70;100.00
45275;BME280;31019;43.780;25.948;2023-07-24T02:45:29;101217.31;;;17.58;100.00
45275;BME280;31019;43.780;25.948;2023-07-24T02:47:56;101209.00;;;17.59;100.00
45275;BME280;31019;43.780;25.948;2023-07-24T02:50:23;101207.78;;;17.10;100.00
45275;BME280;31019;43.780;25.948;2023-07-24T02:52:51;101214.31;;;17.02;100.00
45275;BME280;31019;43.780;25.948;2023-07-24T02:55:18;101200.75;;;17.09;100.00
45275;BME280;31019;43.780;25.948;2023-07-24T02:57:45;101200.09;;;16.66;100.00
45275;BME280;31019;43.780;25.948;2023-07-24T03:00:13;101190.53;;;17.34;100.00
45275;BME280;31019;43.780;25.948;2023-07-24T03:02:40;101189.06;;;17.55;100.00
45275;BME280;31019;43.780;25.948;2023-07-24T03:05:07;101185.00;;;17.41;100.00
45275;BME280;31019;43.780;25.948;2023-07-24T03:07:35;101193.91;;;16.89;100.00
45275;BME280;31019;43.780;25.948;2023-07-24T03:10:03;101195.09;;;16.82;100.00
45275;BME280;31019;43.780;25.948;2023-07-24T03:12:30;101196.97;;;16.81;100.00
45275;BME280;31019;43.780;25.948;2023-07-24T03:14:57;101192.00;;;17.13;100.00
45275;BME280;31019;43.780;25.948;2023-07-24T03:17:24;101189.75;;;17.22;100.00
45275;BME280;31019;43.780;25.948;2023-07-24T03:19:51;101187.22;;;17.44;100.00
45275;BME280;31019;43.780;25.948;2023-07-24T03:22:18;101192.44;;;17.22;100.00
45275;BME280;31019;43.780;25.948;2023-07-24T03:24:45;101192.16;;;17.35;100.00
45275;BME280;31019;43.780;25.948;2023-07-24T03:27:13;101190.34;;;17.53;100.00
45275;BME280;31019;43.780;25.948;2023-07-24T03:29:40;101194.28;;;17.62;100.00
45275;BME280;31019;43.780;25.948;2023-07-24T03:32:07;101189.28;;;17.54;100.00
45275;BME280;31019;43.780;25.948;2023-07-24T03:34:34;101185.09;;;17.17;100.00
45275;BME280;31019;43.780;25.948;2023-07-24T03:37:01;101180.63;;;16.71;100.00
45275;BME280;31019;43.780;25.948;2023-07-24T03:39:28;101189.03;;;17.27;100.00
45275;BME280;31019;43.780;25.948;2023-07-24T03:41:54;101177.84;;;17.75;100.00
45275;BME280;31019;43.780;25.948;2023-07-24T03:44:23;101186.03;;;17.80;100.00
45275;BME280;31019;43.780;25.948;2023-07-24T03:46:50;101180.00;;;17.90;100.00
45275;BME280;31019;43.780;25.948;2023-07-24T03:49:17;101177.34;;;18.07;100.00
45275;BME280;31019;43.780;25.948;2023-07-24T03:51:44;101189.13;;;18.23;100.00
45275;BME280;31019;43.780;25.948;2023-07-24T03:54:10;101187.25;;;18.23;100.00
45275;BME280;31019;43.780;25.948;2023-07-24T03:56:37;101186.66;;;18.38;100.00
45275;BME280;31019;43.780;25.948;2023-07-24T03:59:05;101185.28;;;18.36;100.00
45275;BME280;31019;43.780;25.948;2023-07-24T04:01:33;101183.44;;;18.19;100.00
45275;BME280;31019;43.780;25.948;2023-07-24T04:04:01;101185.16;;;18.64;100.00
45275;BME280;31019;43.780;25.948;2023-07-24T04:06:28;101179.56;;;18.88;100.00
45275;BME280;31019;43.780;25.948;2023-07-24T04:08:55;101179.84;;;18.69;100.00
45275;BME280;31019;43.780;25.948;2023-07-24T04:11:22;101176.72;;;18.94;100.00
45275;BME280;31019;43.780;25.948;2023-07-24T04:13:49;101180.47;;;19.15;100.00
45275;BME280;31019;43.780;25.948;2023-07-24T04:16:15;101178.00;;;19.14;100.00
45275;BME280;31019;43.780;25.948;2023-07-24T04:18:44;101180.00;;;19.23;100.00
45275;BME280;31019;43.780;25.948;2023-07-24T04:21:10;101173.38;;;19.31;100.00
45275;BME280;31019;43.780;25.948;2023-07-24T04:23:37;101166.69;;;19.39;100.00
45275;BME280;31019;43.780;25.948;2023-07-24T04:26:04;101182.50;;;19.57;100.00
45275;BME280;31019;43.780;25.948;2023-07-24T04:28:31;101179.56;;;19.59;100.00
45275;BME280;31019;43.780;25.948;2023-07-24T04:30:59;101172.69;;;19.68;100.00
45275;BME280;31019;43.780;25.948;2023-07-24T04:33:26;101174.47;;;19.89;100.00
45275;BME280;31019;43.780;25.948;2023-07-24T04:35:55;101174.75;;;19.88;100.00
45275;BME280;31019;43.780;25.948;2023-07-24T04:38:22;101180.75;;;19.95;100.00
45275;BME280;31019;43.780;25.948;2023-07-24T04:40:49;101179.94;;;19.95;100.00
45275;BME280;31019;43.780;25.948;2023-07-24T04:43:16;101182.47;;;20.11;100.00
45275;BME280;31019;43.780;25.948;2023-07-24T04:45:43;101186.59;;;20.19;100.00
45275;BME280;31019;43.780;25.948;2023-07-24T04:48:12;101185.31;;;20.32;100.00
45275;BME280;31019;43.780;25.948;2023-07-24T04:50:39;101187.31;;;20.47;100.00
45275;BME280;31019;43.780;25.948;2023-07-24T04:53:07;101181.19;;;20.56;100.00
45275;BME280;31019;43.780;25.948;2023-07-24T04:55:34;101184.25;;;20.75;100.00
45275;BME280;31019;43.780;25.948;2023-07-24T04:58:01;101179.38;;;20.72;100.00
45275;BME280;31019;43.780;25.948;2023-07-24T05:00:28;101186.44;;;20.84;100.00
45275;BME280;31019;43.780;25.948;2023-07-24T05:02:55;101185.41;;;20.90;100.00
45275;BME280;31019;43.780;25.948;2023-07-24T05:05:22;101182.25;;;21.13;100.00
45275;BME280;31019;43.780;25.948;2023-07-24T05:07:48;101178.53;;;21.24;100.00
45275;BME280;31019;43.780;25.948;2023-07-24T05:10:16;101175.63;;;21.46;100.00
45275;BME280;31019;43.780;25.948;2023-07-24T05:12:43;101173.72;;;21.37;100.00
45275;BME280;31019;43.780;25.948;2023-07-24T05:15:10;101164.03;;;21.71;100.00
45275;BME280;31019;43.780;25.948;2023-07-24T05:17:37;101164.81;;;21.72;100.00
45275;BME280;31019;43.780;25.948;2023-07-24T05:20:05;101161.59;;;22.31;100.00
45275;BME280;31019;43.780;25.948;2023-07-24T05:22:32;101167.53;;;22.13;100.00
45275;BME280;31019;43.780;25.948;2023-07-24T05:24:59;101154.81;;;22.13;100.00
45275;BME280;31019;43.780;25.948;2023-07-24T05:27:28;101158.63;;;22.23;100.00
45275;BME280;31019;43.780;25.948;2023-07-24T05:29:55;101160.22;;;22.34;100.00
45275;BME280;31019;43.780;25.948;2023-07-24T05:32:22;101159.84;;;22.66;100.00
45275;BME280;31019;43.780;25.948;2023-07-24T05:34:49;101157.44;;;22.70;100.00
45275;BME280;31019;43.780;25.948;2023-07-24T05:37:16;101153.53;;;22.96;100.00
45275;BME280;31019;43.780;25.948;2023-07-24T05:39:42;101160.50;;;23.13;100.00
45275;BME280;31019;43.780;25.948;2023-07-24T05:42:09;101150.78;;;23.06;100.00
45275;BME280;31019;43.780;25.948;2023-07-24T05:44:38;101145.28;;;23.27;100.00
45275;BME280;31019;43.780;25.948;2023-07-24T05:47:05;101144.97;;;23.28;100.00
45275;BME280;31019;43.780;25.948;2023-07-24T05:49:32;101143.38;;;23.27;100.00
45275;BME280;31019;43.780;25.948;2023-07-24T05:51:59;101150.31;;;23.39;100.00
45275;BME280;31019;43.780;25.948;2023-07-24T05:54:25;101147.69;;;23.68;100.00
45275;BME280;31019;43.780;25.948;2023-07-24T05:56:52;101149.50;;;23.83;100.00
45275;BME280;31019;43.780;25.948;2023-07-24T05:59:19;101150.50;;;23.92;100.00
45275;BME280;31019;43.780;25.948;2023-07-24T06:01:47;101136.06;;;24.26;100.00
45275;BME280;31019;43.780;25.948;2023-07-24T06:04:14;101135.28;;;24.20;100.00
45275;BME280;31019;43.780;25.948;2023-07-24T06:06:41;101136.22;;;24.34;100.00
45275;BME280;31019;43.780;25.948;2023-07-24T06:09:08;101135.69;;;24.61;100.00
45275;BME280;31019;43.780;25.948;2023-07-24T06:11:34;101131.81;;;24.67;100.00
45275;BME280;31019;43.780;25.948;2023-07-24T06:14:01;101133.16;;;24.46;100.00
45275;BME280;31019;43.780;25.948;2023-07-24T06:16:28;101136.88;;;24.74;100.00
45275;BME280;31019;43.780;25.948;2023-07-24T06:18:56;101132.56;;;24.92;100.00
45275;BME280;31019;43.780;25.948;2023-07-24T06:21:23;101132.22;;;24.99;100.00
45275;BME280;31019;43.780;25.948;2023-07-24T06:23:50;101127.53;;;25.23;100.00
45275;BME280;31019;43.780;25.948;2023-07-24T06:26:17;101124.00;;;25.42;100.00
45275;BME280;31019;43.780;25.948;2023-07-24T06:28:44;101114.78;;;25.75;100.00
45275;BME280;31019;43.780;25.948;2023-07-24T06:31:13;101108.75;;;25.59;100.00
45275;BME280;31019;43.780;25.948;2023-07-24T06:33:43;101116.59;;;25.80;100.00
45275;BME280;31019;43.780;25.948;2023-07-24T06:36:11;101125.69;;;25.56;100.00
45275;BME280;31019;43.780;25.948;2023-07-24T06:38:39;101117.19;;;26.10;100.00
45275;BME280;31019;43.780;25.948;2023-07-24T06:41:07;101114.78;;;26.22;100.00
45275;BME280;31019;43.780;25.948;2023-07-24T06:43:34;101118.72;;;26.30;100.00
45275;BME280;31019;43.780;25.948;2023-07-24T06:46:01;101121.84;;;26.50;100.00
45275;BME280;31019;43.780;25.948;2023-07-24T06:48:28;101121.13;;;26.31;100.00
45275;BME280;31019;43.780;25.948;2023-07-24T06:50:55;101115.56;;;26.78;100.00
45275;BME280;31019;43.780;25.948;2023-07-24T06:53:23;101116.88;;;27.30;100.00
45275;BME280;31019;43.780;25.948;2023-07-24T06:55:50;101119.50;;;26.71;100.00
45275;BME280;31019;43.780;25.948;2023-07-24T06:58:19;101125.41;;;27.01;100.00
45275;BME280;31019;43.780;25.948;2023-07-24T07:00:46;101122.25;;;27.22;100.00
45275;BME280;31019;43.780;25.948;2023-07-24T07:03:13;101122.72;;;27.37;100.00
45275;BME280;31019;43.780;25.948;2023-07-24T07:05:40;101125.44;;;27.37;100.00
45275;BME280;31019;43.780;25.948;2023-07-24T07:08:10;101111.25;;;27.49;100.00
45275;BME280;31019;43.780;25.948;2023-07-24T07:10:38;101110.22;;;27.68;100.00
45275;BME280;31019;43.780;25.948;2023-07-24T07:13:05;101099.97;;;27.87;100.00
45275;BME280;31019;43.780;25.948;2023-07-24T07:15:32;101094.66;;;28.30;100.00
45275;BME280;31019;43.780;25.948;2023-07-24T07:17:58;101094.59;;;28.53;100.00
45275;BME280;31019;43.780;25.948;2023-07-24T07:20:25;101092.69;;;28.22;100.00
45275;BME280;31019;43.780;25.948;2023-07-24T07:22:52;101097.41;;;27.23;100.00
45275;BME280;31019;43.780;25.948;2023-07-24T07:25:22;101097.22;;;27.87;100.00
45275;BME280;31019;43.780;25.948;2023-07-24T07:27:52;101093.59;;;28.00;100.00
45275;BME280;31019;43.780;25.948;2023-07-24T07:30:19;101088.78;;;28.46;100.00
45275;BME280;31019;43.780;25.948;2023-07-24T07:32:46;101085.63;;;28.61;100.00
45275;BME280;31019;43.780;25.948;2023-07-24T07:35:14;101095.28;;;28.76;100.00
45275;BME280;31019;43.780;25.948;2023-07-24T07:37:41;101088.41;;;28.96;100.00
45275;BME280;31019;43.780;25.948;2023-07-24T07:40:12;101086.44;;;28.70;100.00
45275;BME280;31019;43.780;25.948;2023-07-24T07:42:39;101079.22;;;28.66;100.00
45275;BME280;31019;43.780;25.948;2023-07-24T07:45:14;101075.50;;;28.79;100.00
45275;BME280;31019;43.780;25.948;2023-07-24T07:47:41;101073.94;;;28.87;100.00
45275;BME280;31019;43.780;25.948;2023-07-24T07:50:09;101071.84;;;29.27;100.00
45275;BME280;31019;43.780;25.948;2023-07-24T07:52:38;101073.94;;;29.13;100.00
45275;BME280;31019;43.780;25.948;2023-07-24T07:55:06;101073.28;;;29.16;100.00
45275;BME280;31019;43.780;25.948;2023-07-24T07:57:34;101063.69;;;29.74;100.00
45275;BME280;31019;43.780;25.948;2023-07-24T08:00:01;101062.25;;;29.77;100.00
45275;BME280;31019;43.780;25.948;2023-07-24T08:02:29;101054.84;;;29.77;100.00
45275;BME280;31019;43.780;25.948;2023-07-24T08:04:57;101046.66;;;30.45;100.00
45275;BME280;31019;43.780;25.948;2023-07-24T08:07:24;101058.75;;;30.44;100.00
45275;BME280;31019;43.780;25.948;2023-07-24T08:09:51;101054.34;;;30.22;100.00
45275;BME280;31019;43.780;25.948;2023-07-24T08:12:18;101048.13;;;29.66;100.00
45275;BME280;31019;43.780;25.948;2023-07-24T08:14:45;101045.38;;;30.04;100.00
45275;BME280;31019;43.780;25.948;2023-07-24T08:17:12;101042.03;;;29.43;100.00
45275;BME280;31019;43.780;25.948;2023-07-24T08:19:40;101047.19;;;29.44;100.00
45275;BME280;31019;43.780;25.948;2023-07-24T08:22:07;101033.78;;;29.69;100.00
45275;BME280;31019;43.780;25.948;2023-07-24T08:24:34;101036.19;;;30.09;100.00
45275;BME280;31019;43.780;25.948;2023-07-24T08:27:01;101036.88;;;30.35;100.00
45275;BME280;31019;43.780;25.948;2023-07-24T08:29:28;101032.09;;;30.74;100.00
45275;BME280;31019;43.780;25.948;2023-07-24T08:31:55;101041.38;;;30.61;100.00
45275;BME280;31019;43.780;25.948;2023-07-24T08:34:22;101036.69;;;31.03;100.00
45275;BME280;31019;43.780;25.948;2023-07-24T08:36:50;101038.06;;;30.47;100.00
45275;BME280;31019;43.780;25.948;2023-07-24T08:39:17;101031.50;;;30.09;100.00
45275;BME280;31019;43.780;25.948;2023-07-24T08:41:44;101023.56;;;30.25;100.00
45275;BME280;31019;43.780;25.948;2023-07-24T08:44:11;101026.28;;;30.97;100.00
45275;BME280;31019;43.780;25.948;2023-07-24T08:46:39;101025.75;;;31.49;100.00
45275;BME280;31019;43.780;25.948;2023-07-24T08:49:09;101015.38;;;31.55;100.00
45275;BME280;31019;43.780;25.948;2023-07-24T08:51:38;101029.25;;;32.07;100.00
45275;BME280;31019;43.780;25.948;2023-07-24T08:54:10;101033.97;;;30.83;100.00
45275;BME280;31019;43.780;25.948;2023-07-24T08:56:38;101036.00;;;30.65;100.00
45275;BME280;31019;43.780;25.948;2023-07-24T08:59:07;101021.59;;;30.97;100.00
45275;BME280;31019;43.780;25.948;2023-07-24T09:01:34;101022.56;;;30.80;100.00
45275;BME280;31019;43.780;25.948;2023-07-24T09:04:01;101019.13;;;31.05;100.00
45275;BME280;31019;43.780;25.948;2023-07-24T09:06:27;101006.31;;;31.09;100.00
45275;BME280;31019;43.780;25.948;2023-07-24T09:08:54;101007.13;;;31.09;100.00
45275;BME280;31019;43.780;25.948;2023-07-24T09:11:22;101002.13;;;30.69;100.00
45275;BME280;31019;43.780;25.948;2023-07-24T09:13:49;100991.84;;;31.66;100.00
45275;BME280;31019;43.780;25.948;2023-07-24T09:16:24;100990.22;;;31.65;99.35
45275;BME280;31019;43.780;25.948;2023-07-24T09:18:51;100998.00;;;31.75;95.76
45275;BME280;31019;43.780;25.948;2023-07-24T09:21:27;100989.44;;;32.01;93.79
45275;BME280;31019;43.780;25.948;2023-07-24T09:23:55;101002.13;;;31.23;100.00
45275;BME280;31019;43.780;25.948;2023-07-24T09:26:23;100995.03;;;31.22;95.94
45275;BME280;31019;43.780;25.948;2023-07-24T09:28:54;100982.91;;;31.69;100.00
45275;BME280;31019;43.780;25.948;2023-07-24T09:31:21;100980.88;;;31.20;100.00
45275;BME280;31019;43.780;25.948;2023-07-24T09:33:47;100978.44;;;31.77;87.00
45275;BME280;31019;43.780;25.948;2023-07-24T09:36:14;100980.72;;;31.50;95.13
45275;BME280;31019;43.780;25.948;2023-07-24T09:38:41;100980.97;;;31.69;88.70
45275;BME280;31019;43.780;25.948;2023-07-24T09:41:08;100970.56;;;31.75;87.33
45275;BME280;31019;43.780;25.948;2023-07-24T09:43:41;100962.28;;;32.93;79.11
45275;BME280;31019;43.780;25.948;2023-07-24T09:46:10;100961.47;;;33.04;77.72
45275;BME280;31019;43.780;25.948;2023-07-24T09:48:37;100957.13;;;32.35;72.46
45275;BME280;31019;43.780;25.948;2023-07-24T09:51:04;100955.94;;;32.76;67.46
45275;BME280;31019;43.780;25.948;2023-07-24T09:53:33;100951.94;;;32.74;69.06
45275;BME280;31019;43.780;25.948;2023-07-24T09:56:02;100953.84;;;32.85;68.76
45275;BME280;31019;43.780;25.948;2023-07-24T09:58:32;100954.38;;;32.35;93.44
45275;BME280;31019;43.780;25.948;2023-07-24T10:01:02;100952.75;;;32.46;83.14
45275;BME280;31019;43.780;25.948;2023-07-24T10:03:30;100937.94;;;33.70;72.25
45275;BME280;31019;43.780;25.948;2023-07-24T10:05:57;100938.84;;;33.27;86.66
45275;BME280;31019;43.780;25.948;2023-07-24T10:08:24;100938.50;;;32.56;84.28
45275;BME280;31019;43.780;25.948;2023-07-24T10:10:52;100927.50;;;32.84;90.18
45275;BME280;31019;43.780;25.948;2023-07-24T10:13:20;100917.25;;;33.61;72.66
45275;BME280;31019;43.780;25.948;2023-07-24T10:15:48;100924.66;;;32.97;90.95
45275;BME280;31019;43.780;25.948;2023-07-24T10:18:17;100900.91;;;33.36;85.04
45275;BME280;31019;43.780;25.948;2023-07-24T10:20:44;100907.84;;;33.30;82.03
45275;BME280;31019;43.780;25.948;2023-07-24T10:23:17;100907.22;;;34.04;74.92
45275;BME280;31019;43.780;25.948;2023-07-24T10:25:45;100899.63;;;34.55;62.33
45275;BME280;31019;43.780;25.948;2023-07-24T10:28:13;100904.53;;;33.40;66.50
45275;BME280;31019;43.780;25.948;2023-07-24T10:30:44;100898.09;;;33.33;67.62
45275;BME280;31019;43.780;25.948;2023-07-24T10:33:22;100907.38;;;32.40;96.63
45275;BME280;31019;43.780;25.948;2023-07-24T10:35:52;100894.09;;;33.30;84.35
45275;BME280;31019;43.780;25.948;2023-07-24T10:38:33;100895.00;;;32.74;71.01
45275;BME280;31019;43.780;25.948;2023-07-24T10:41:02;100886.06;;;32.49;87.95
45275;BME280;31019;43.780;25.948;2023-07-24T10:43:29;100886.97;;;33.13;53.96
45275;BME280;31019;43.780;25.948;2023-07-24T10:46:06;100885.84;;;33.14;82.79
45275;BME280;31019;43.780;25.948;2023-07-24T10:48:34;100878.56;;;33.38;66.78
45275;BME280;31019;43.780;25.948;2023-07-24T10:51:06;100880.22;;;34.29;61.35
45275;BME280;31019;43.780;25.948;2023-07-24T10:53:34;100867.06;;;33.67;62.45
45275;BME280;31019;43.780;25.948;2023-07-24T10:56:01;100871.03;;;32.59;69.17
45275;BME280;31019;43.780;25.948;2023-07-24T10:58:28;100861.16;;;31.77;100.00
45275;BME280;31019;43.780;25.948;2023-07-24T11:00:56;100855.38;;;33.07;76.69
45275;BME280;31019;43.780;25.948;2023-07-24T11:03:24;100849.88;;;33.07;93.97
45275;BME280;31019;43.780;25.948;2023-07-24T11:05:54;100854.81;;;32.85;76.07
45275;BME280;31019;43.780;25.948;2023-07-24T11:08:21;100842.16;;;32.81;76.35
45275;BME280;31019;43.780;25.948;2023-07-24T11:10:49;100847.38;;;33.65;84.00
45275;BME280;31019;43.780;25.948;2023-07-24T11:13:17;100847.75;;;33.32;58.89
45275;BME280;31019;43.780;25.948;2023-07-24T11:15:44;100844.03;;;33.75;46.00
45275;BME280;31019;43.780;25.948;2023-07-24T11:18:11;100845.63;;;33.25;79.51
45275;BME280;31019;43.780;25.948;2023-07-24T11:20:46;100832.94;;;33.21;44.83
45275;BME280;31019;43.780;25.948;2023-07-24T11:23:15;100836.91;;;33.55;47.79
45275;BME280;31019;43.780;25.948;2023-07-24T11:25:42;100844.03;;;33.09;47.59
45275;BME280;31019;43.780;25.948;2023-07-24T11:28:10;100838.84;;;33.55;71.65
45275;BME280;31019;43.780;25.948;2023-07-24T11:30:41;100834.63;;;34.54;48.41
45275;BME280;31019;43.780;25.948;2023-07-24T11:33:11;100827.16;;;34.55;40.90
45275;BME280;31019;43.780;25.948;2023-07-24T11:35:39;100813.41;;;33.26;43.93
45275;BME280;31019;43.780;25.948;2023-07-24T11:38:08;100835.81;;;34.14;56.42
45275;BME280;31019;43.780;25.948;2023-07-24T11:40:38;100830.00;;;34.39;46.75
45275;BME280;31019;43.780;25.948;2023-07-24T11:43:15;100835.94;;;34.02;78.01
45275;BME280;31019;43.780;25.948;2023-07-24T11:45:44;100816.31;;;34.65;45.49
45275;BME280;31019;43.780;25.948;2023-07-24T11:48:12;100830.78;;;34.59;62.51
45275;BME280;31019;43.780;25.948;2023-07-24T11:50:44;100823.84;;;34.26;45.25
45275;BME280;31019;43.780;25.948;2023-07-24T11:53:19;100821.66;;;33.96;52.70
45275;BME280;31019;43.780;25.948;2023-07-24T11:55:49;100823.06;;;34.06;59.09
45275;BME280;31019;43.780;25.948;2023-07-24T11:58:17;100808.13;;;33.37;58.57
45275;BME280;31019;43.780;25.948;2023-07-24T12:00:45;100808.38;;;33.83;52.12
45275;BME280;31019;43.780;25.948;2023-07-24T12:03:12;100804.34;;;33.96;45.93
45275;BME280;31019;43.780;25.948;2023-07-24T12:05:39;100820.59;;;33.30;65.94
45275;BME280;31019;43.780;25.948;2023-07-24T12:08:07;100805.38;;;33.52;46.39
45275;BME280;31019;43.780;25.948;2023-07-24T12:10:36;100811.19;;;33.67;69.52
45275;BME280;31019;43.780;25.948;2023-07-24T12:13:05;100805.19;;;33.81;50.53
45275;BME280;31019;43.780;25.948;2023-07-24T12:15:33;100807.81;;;34.12;59.76
45275;BME280;31019;43.780;25.948;2023-07-24T12:18:01;100798.91;;;35.07;39.07
45275;BME280;31019;43.780;25.948;2023-07-24T12:20:28;100809.63;;;34.67;49.85
45275;BME280;31019;43.780;25.948;2023-07-24T12:22:55;100804.09;;;34.43;43.40
45275;BME280;31019;43.780;25.948;2023-07-24T12:25:22;100789.19;;;34.94;48.71
45275;BME280;31019;43.780;25.948;2023-07-24T12:27:50;100794.63;;;36.00;41.06
45275;BME280;31019;43.780;25.948;2023-07-24T12:30:18;100790.84;;;35.52;42.05
45275;BME280;31019;43.780;25.948;2023-07-24T12:32:45;100787.00;;;35.87;36.41
45275;BME280;31019;43.780;25.948;2023-07-24T12:35:12;100779.34;;;34.70;38.73